sensor_id;sensor_type;location;lat;lon;timestamp;noise_LAeq;noise_LA_min;noise_LA_max;noise_LA01;noise_LA95
50333;Laerm;36239;48.132;-1.210;2023-09-30T00:00:01;38.53;34.31;42.53;;
50333;Laerm;36239;48.132;-1.210;2023-09-30T00:02:27;38.25;34.31;41.38;;
50333;Laerm;36239;48.132;-1.210;2023-09-30T00:04:53;37.99;33.90;40.71;;
50333;Laerm;36239;48.132;-1.210;2023-09-30T00:07:19;38.56;33.90;42.29;;
50333;Laerm;36239;48.132;-1.210;2023-09-30T00:09:45;37.63;32.93;43.44;;
50333;Laerm;36239;48.132;-1.210;2023-09-30T00:12:11;38.39;33.90;45.36;;
50333;Laerm;36239;48.132;-1.210;2023-09-30T00:14:37;38.92;34.31;45.20;;
50333;Laerm;36239;48.132;-1.210;2023-09-30T00:17:03;38.95;33.44;46.38;;
50333;Laerm;36239;48.132;-1.210;2023-09-30T00:19:29;38.31;33.90;43.81;;
50333;Laerm;36239;48.132;-1.210;2023-09-30T00:21:58;38.59;33.44;56.73;;
50333;Laerm;36239;48.132;-1.210;2023-09-30T00:24:26;37.73;33.90;43.34;;
50333;Laerm;36239;48.132;-1.210;2023-09-30T00:26:52;37.42;32.93;41.30;;
50333;Laerm;36239;48.132;-1.210;2023-09-30T00:29:18;39.04;33.90;43.49;;
50333;Laerm;36239;48.132;-1.210;2023-09-30T00:31:44;37.72;33.44;42.22;;
50333;Laerm;36239;48.132;-1.210;2023-09-30T00:34:10;37.52;32.93;43.63;;
50333;Laerm;36239;48.132;-1.210;2023-09-30T00:36:36;38.37;33.44;43.09;;
50333;Laerm;36239;48.132;-1.210;2023-09-30T00:39:02;38.26;33.44;49.49;;
50333;Laerm;36239;48.132;-1.210;2023-09-30T00:41:28;38.00;32.93;43.99;;
50333;Laerm;36239;48.132;-1.210;2023-09-30T00:43:54;43.40;32.93;66.28;;
50333;Laerm;36239;48.132;-1.210;2023-09-30T00:46:26;47.07;33.44;71.54;;
50333;Laerm;36239;48.132;-1.210;2023-09-30T00:48:54;37.79;32.93;42.59;;
50333;Laerm;36239;48.132;-1.210;2023-09-30T00:51:21;37.74;33.44;43.28;;
50333;Laerm;36239;48.132;-1.210;2023-09-30T00:53:53;37.69;33.44;41.46;;
50333;Laerm;36239;48.132;-1.210;2023-09-30T00:56:22;37.83;33.44;41.61;;
50333;Laerm;36239;48.132;-1.210;2023-09-30T00:58:48;37.82;32.93;42.29;;
50333;Laerm;36239;48.132;-1.210;2023-09-30T01:01:20;37.59;33.44;43.14;;
50333;Laerm;36239;48.132;-1.210;2023-09-30T01:03:46;38.08;33.44;42.35;;
50333;Laerm;36239;48.132;-1.210;2023-09-30T01:06:13;38.12;33.44;43.19;;
50333;Laerm;36239;48.132;-1.210;2023-09-30T01:08:39;38.08;34.31;41.61;;
50333;Laerm;36239;48.132;-1.210;2023-09-30T01:11:05;37.87;33.44;43.29;;
50333;Laerm;36239;48.132;-1.210;2023-09-30T01:13:41;38.00;33.90;41.22;;
50333;Laerm;36239;48.132;-1.210;2023-09-30T01:16:09;38.43;35.04;46.10;;
50333;Laerm;36239;48.132;-1.210;2023-09-30T01:18:35;38.14;34.31;42.03;;
50333;Laerm;36239;48.132;-1.210;2023-09-30T01:21:02;41.04;33.90;60.83;;
50333;Laerm;36239;48.132;-1.210;2023-09-30T01:23:32;38.05;32.93;50.13;;
50333;Laerm;36239;48.132;-1.210;2023-09-30T01:26:05;37.90;33.90;42.22;;
50333;Laerm;36239;48.132;-1.210;2023-09-30T01:28:32;37.99;34.31;41.75;;
50333;Laerm;36239;48.132;-1.210;2023-09-30T01:30:58;38.50;34.31;42.22;;
50333;Laerm;36239;48.132;-1.210;2023-09-30T01:33:24;38.52;34.31;42.76;;
50333;Laerm;36239;48.132;-1.210;2023-09-30T01:35:50;38.36;34.31;43.54;;
50333;Laerm;36239;48.132;-1.210;2023-09-30T01:38:16;39.12;35.04;47.32;;
50333;Laerm;36239;48.132;-1.210;2023-09-30T01:40:42;38.35;34.31;41.82;;
50333;Laerm;36239;48.132;-1.210;2023-09-30T01:43:09;39.19;34.31;42.82;;
50333;Laerm;36239;48.132;-1.210;2023-09-30T01:45:42;39.34;35.04;46.25;;
50333;Laerm;36239;48.132;-1.210;2023-09-30T01:48:08;38.75;33.44;43.29;;
50333;Laerm;36239;48.132;-1.210;2023-09-30T01:50:37;38.45;34.69;42.71;;
50333;Laerm;36239;48.132;-1.210;2023-09-30T01:53:04;38.56;33.90;43.68;;
50333;Laerm;36239;48.132;-1.210;2023-09-30T01:55:32;38.11;33.90;43.86;;
50333;Laerm;36239;48.132;-1.210;2023-09-30T01:57:59;38.13;32.93;47.84;;
50333;Laerm;36239;48.132;-1.210;2023-09-30T02:00:25;38.32;34.69;41.33;;
50333;Laerm;36239;48.132;-1.210;2023-09-30T02:02:51;37.94;33.44;42.00;;
50333;Laerm;36239;48.132;-1.210;2023-09-30T02:05:16;49.88;34.69;71.82;;
50333;Laerm;36239;48.132;-1.210;2023-09-30T02:07:42;49.36;33.90;66.53;;
50333;Laerm;36239;48.132;-1.210;2023-09-30T02:10:09;38.67;33.90;56.10;;
50333;Laerm;36239;48.132;-1.210;2023-09-30T02:12:35;37.94;33.44;41.68;;
50333;Laerm;36239;48.132;-1.210;2023-09-30T02:15:03;38.10;33.44;43.99;;
50333;Laerm;36239;48.132;-1.210;2023-09-30T02:17:29;38.12;32.93;42.09;;
50333;Laerm;36239;48.132;-1.210;2023-09-30T02:19:55;38.33;34.31;47.83;;
50333;Laerm;36239;48.132;-1.210;2023-09-30T02:22:21;40.12;33.90;55.34;;
50333;Laerm;36239;48.132;-1.210;2023-09-30T02:24:47;50.41;35.36;67.59;;
50333;Laerm;36239;48.132;-1.210;2023-09-30T02:27:14;53.27;34.69;78.26;;
50333;Laerm;36239;48.132;-1.210;2023-09-30T02:29:40;38.64;34.31;42.29;;
50333;Laerm;36239;48.132;-1.210;2023-09-30T02:32:06;38.67;34.31;42.03;;
50333;Laerm;36239;48.132;-1.210;2023-09-30T02:34:32;38.46;34.31;43.19;;
50333;Laerm;36239;48.132;-1.210;2023-09-30T02:36:58;38.42;34.69;45.75;;
50333;Laerm;36239;48.132;-1.210;2023-09-30T02:39:25;38.73;34.31;41.68;;
50333;Laerm;36239;48.132;-1.210;2023-09-30T02:41:52;38.60;34.69;47.84;;
50333;Laerm;36239;48.132;-1.210;2023-09-30T02:44:18;38.69;34.31;49.23;;
50333;Laerm;36239;48.132;-1.210;2023-09-30T02:46:44;38.77;33.90;43.19;;
50333;Laerm;36239;48.132;-1.210;2023-09-30T02:49:10;39.19;35.59;42.88;;
50333;Laerm;36239;48.132;-1.210;2023-09-30T02:51:36;39.18;35.04;43.24;;
50333;Laerm;36239;48.132;-1.210;2023-09-30T02:54:02;38.83;34.69;43.44;;
50333;Laerm;36239;48.132;-1.210;2023-09-30T02:56:28;38.66;34.69;41.96;;
50333;Laerm;36239;48.132;-1.210;2023-09-30T02:58:56;38.53;34.69;41.96;;
50333;Laerm;36239;48.132;-1.210;2023-09-30T03:01:22;38.07;33.90;45.20;;
50333;Laerm;36239;48.132;-1.210;2023-09-30T03:03:48;38.12;33.90;43.39;;
50333;Laerm;36239;48.132;-1.210;2023-09-30T03:06:14;39.48;34.69;44.03;;
50333;Laerm;36239;48.132;-1.210;2023-09-30T03:08:40;38.58;35.04;42.69;;
50333;Laerm;36239;48.132;-1.210;2023-09-30T03:11:06;39.68;35.36;44.65;;
50333;Laerm;36239;48.132;-1.210;2023-09-30T03:13:33;39.64;35.36;43.89;;
50333;Laerm;36239;48.132;-1.210;2023-09-30T03:15:59;39.12;35.04;48.42;;
50333;Laerm;36239;48.132;-1.210;2023-09-30T03:18:27;38.94;33.90;43.39;;
50333;Laerm;36239;48.132;-1.210;2023-09-30T03:20:58;39.76;35.36;44.73;;
50333;Laerm;36239;48.132;-1.210;2023-09-30T03:23:26;44.87;35.36;74.58;;
50333;Laerm;36239;48.132;-1.210;2023-09-30T03:25:57;38.98;33.44;44.62;;
50333;Laerm;36239;48.132;-1.210;2023-09-30T03:28:23;51.87;33.90;72.83;;
50333;Laerm;36239;48.132;-1.210;2023-09-30T03:30:49;39.50;33.90;56.52;;
50333;Laerm;36239;48.132;-1.210;2023-09-30T03:33:15;38.54;33.90;43.24;;
50333;Laerm;36239;48.132;-1.210;2023-09-30T03:35:41;39.56;34.69;44.03;;
50333;Laerm;36239;48.132;-1.210;2023-09-30T03:38:07;39.01;34.69;43.54;;
50333;Laerm;36239;48.132;-1.210;2023-09-30T03:40:35;39.83;35.66;44.27;;
50333;Laerm;36239;48.132;-1.210;2023-09-30T03:43:04;39.02;35.04;42.64;;
50333;Laerm;36239;48.132;-1.210;2023-09-30T03:45:33;38.44;33.90;47.77;;
50333;Laerm;36239;48.132;-1.210;2023-09-30T03:47:59;38.73;34.31;43.60;;
50333;Laerm;36239;48.132;-1.210;2023-09-30T03:50:25;41.92;36.10;45.39;;
50333;Laerm;36239;48.132;-1.210;2023-09-30T03:52:51;40.80;35.36;46.59;;
50333;Laerm;36239;48.132;-1.210;2023-09-30T03:55:17;38.20;34.31;41.61;;
50333;Laerm;36239;48.132;-1.210;2023-09-30T03:57:47;38.66;33.90;43.04;;
50333;Laerm;36239;48.132;-1.210;2023-09-30T04:00:13;39.10;33.90;46.87;;
50333;Laerm;36239;48.132;-1.210;2023-09-30T04:02:44;38.58;33.90;41.68;;
50333;Laerm;36239;48.132;-1.210;2023-09-30T04:05:14;38.51;34.31;42.88;;
50333;Laerm;36239;48.132;-1.210;2023-09-30T04:07:40;38.71;33.90;45.80;;
50333;Laerm;36239;48.132;-1.210;2023-09-30T04:10:08;39.58;35.66;45.63;;
50333;Laerm;36239;48.132;-1.210;2023-09-30T04:12:34;39.21;35.36;42.93;;
50333;Laerm;36239;48.132;-1.210;2023-09-30T04:15:01;40.03;35.04;50.38;;
50333;Laerm;36239;48.132;-1.210;2023-09-30T04:17:27;39.44;35.36;43.68;;
50333;Laerm;36239;48.132;-1.210;2023-09-30T04:19:53;40.09;34.31;44.83;;
50333;Laerm;36239;48.132;-1.210;2023-09-30T04:22:19;40.55;35.04;44.80;;
50333;Laerm;36239;48.132;-1.210;2023-09-30T04:24:47;39.40;34.69;42.53;;
50333;Laerm;36239;48.132;-1.210;2023-09-30T04:27:15;38.83;34.31;42.82;;
50333;Laerm;36239;48.132;-1.210;2023-09-30T04:29:42;38.88;34.31;44.54;;
50333;Laerm;36239;48.132;-1.210;2023-09-30T04:32:08;38.67;34.31;45.07;;
50333;Laerm;36239;48.132;-1.210;2023-09-30T04:34:34;38.59;34.31;42.16;;
50333;Laerm;36239;48.132;-1.210;2023-09-30T04:37:00;39.09;33.90;42.82;;
50333;Laerm;36239;48.132;-1.210;2023-09-30T04:39:26;39.21;35.36;43.86;;
50333;Laerm;36239;48.132;-1.210;2023-09-30T04:41:52;38.99;34.69;43.04;;
50333;Laerm;36239;48.132;-1.210;2023-09-30T04:44:19;38.69;33.44;43.24;;
50333;Laerm;36239;48.132;-1.210;2023-09-30T04:46:45;39.38;34.69;47.76;;
50333;Laerm;36239;48.132;-1.210;2023-09-30T04:49:15;39.58;35.66;43.54;;
50333;Laerm;36239;48.132;-1.210;2023-09-30T04:51:41;39.86;33.44;44.83;;
50333;Laerm;36239;48.132;-1.210;2023-09-30T04:54:07;39.87;35.66;45.83;;
50333;Laerm;36239;48.132;-1.210;2023-09-30T04:56:34;41.73;35.94;53.82;;
50333;Laerm;36239;48.132;-1.210;2023-09-30T04:59:01;39.36;34.69;45.45;;
50333;Laerm;36239;48.132;-1.210;2023-09-30T05:01:28;39.51;35.04;43.34;;
50333;Laerm;36239;48.132;-1.210;2023-09-30T05:03:54;40.07;35.36;44.58;;
50333;Laerm;36239;48.132;-1.210;2023-09-30T05:06:20;41.98;35.66;45.27;;
50333;Laerm;36239;48.132;-1.210;2023-09-30T05:08:47;39.51;35.36;47.70;;
50333;Laerm;36239;48.132;-1.210;2023-09-30T05:11:16;40.93;35.66;50.70;;
50333;Laerm;36239;48.132;-1.210;2023-09-30T05:13:42;40.21;35.04;50.81;;
50333;Laerm;36239;48.132;-1.210;2023-09-30T05:16:08;40.88;37.12;45.63;;
50333;Laerm;36239;48.132;-1.210;2023-09-30T05:18:34;39.64;35.66;49.10;;
50333;Laerm;36239;48.132;-1.210;2023-09-30T05:21:00;40.20;34.31;50.54;;
50333;Laerm;36239;48.132;-1.210;2023-09-30T05:23:26;40.54;36.45;48.73;;
50333;Laerm;36239;48.132;-1.210;2023-09-30T05:25:52;41.31;35.94;48.52;;
50333;Laerm;36239;48.132;-1.210;2023-09-30T05:28:22;40.69;36.20;53.82;;
50333;Laerm;36239;48.132;-1.210;2023-09-30T05:30:48;39.67;34.69;50.55;;
50333;Laerm;36239;48.132;-1.210;2023-09-30T05:33:16;39.76;35.36;51.69;;
50333;Laerm;36239;48.132;-1.210;2023-09-30T05:35:42;40.18;35.66;51.26;;
50333;Laerm;36239;48.132;-1.210;2023-09-30T05:38:08;41.26;37.32;45.17;;
50333;Laerm;36239;48.132;-1.210;2023-09-30T05:40:34;41.26;37.12;45.66;;
50333;Laerm;36239;48.132;-1.210;2023-09-30T05:43:00;41.91;38.21;48.31;;
50333;Laerm;36239;48.132;-1.210;2023-09-30T05:45:27;41.94;37.88;47.77;;
50333;Laerm;36239;48.132;-1.210;2023-09-30T05:47:54;41.15;36.45;49.87;;
50333;Laerm;36239;48.132;-1.210;2023-09-30T05:50:21;40.73;36.20;49.70;;
50333;Laerm;36239;48.132;-1.210;2023-09-30T05:52:52;40.25;35.94;51.37;;
50333;Laerm;36239;48.132;-1.210;2023-09-30T05:55:19;40.51;36.45;51.47;;
50333;Laerm;36239;48.132;-1.210;2023-09-30T05:57:48;41.64;36.91;62.36;;
50333;Laerm;36239;48.132;-1.210;2023-09-30T06:00:15;40.52;36.69;57.11;;
50333;Laerm;36239;48.132;-1.210;2023-09-30T06:03:02;41.26;37.88;49.44;;
50333;Laerm;36239;48.132;-1.210;2023-09-30T06:05:30;41.23;36.45;56.91;;
50333;Laerm;36239;48.132;-1.210;2023-09-30T06:07:58;43.42;37.52;61.33;;
50333;Laerm;36239;48.132;-1.210;2023-09-30T06:10:24;41.21;37.70;51.89;;
50333;Laerm;36239;48.132;-1.210;2023-09-30T06:12:52;43.37;38.21;53.86;;
50333;Laerm;36239;48.132;-1.210;2023-09-30T06:15:22;43.26;37.88;54.88;;
50333;Laerm;36239;48.132;-1.210;2023-09-30T06:17:52;43.55;36.69;56.44;;
50333;Laerm;36239;48.132;-1.210;2023-09-30T06:20:19;42.37;36.45;52.97;;
50333;Laerm;36239;48.132;-1.210;2023-09-30T06:22:45;41.92;37.53;54.60;;
50333;Laerm;36239;48.132;-1.210;2023-09-30T06:25:12;43.14;38.05;65.67;;
50333;Laerm;36239;48.132;-1.210;2023-09-30T06:27:38;43.66;37.70;64.63;;
50333;Laerm;36239;48.132;-1.210;2023-09-30T06:30:05;42.15;35.94;47.79;;
50333;Laerm;36239;48.132;-1.210;2023-09-30T06:32:31;42.04;36.91;57.27;;
50333;Laerm;36239;48.132;-1.210;2023-09-30T06:34:57;42.45;38.52;54.75;;
50333;Laerm;36239;48.132;-1.210;2023-09-30T06:37:23;42.62;38.05;58.74;;
50333;Laerm;36239;48.132;-1.210;2023-09-30T06:39:52;42.35;38.21;58.98;;
50333;Laerm;36239;48.132;-1.210;2023-09-30T06:42:18;42.97;37.52;56.72;;
50333;Laerm;36239;48.132;-1.210;2023-09-30T06:44:44;43.12;39.08;54.49;;
50333;Laerm;36239;48.132;-1.210;2023-09-30T06:47:12;43.64;39.81;60.61;;
50333;Laerm;36239;48.132;-1.210;2023-09-30T06:49:38;45.81;39.81;66.76;;
50333;Laerm;36239;48.132;-1.210;2023-09-30T06:52:05;51.42;39.46;79.87;;
50333;Laerm;36239;48.132;-1.210;2023-09-30T06:54:31;51.73;39.46;83.29;;
50333;Laerm;36239;48.132;-1.210;2023-09-30T06:56:57;43.09;38.81;54.53;;
50333;Laerm;36239;48.132;-1.210;2023-09-30T06:59:23;57.89;39.21;80.73;;
50333;Laerm;36239;48.132;-1.210;2023-09-30T07:01:50;44.76;39.21;61.67;;
50333;Laerm;36239;48.132;-1.210;2023-09-30T07:04:17;44.07;39.92;56.19;;
50333;Laerm;36239;48.132;-1.210;2023-09-30T07:06:43;42.65;37.70;56.05;;
50333;Laerm;36239;48.132;-1.210;2023-09-30T07:09:09;42.61;37.70;55.34;;
50333;Laerm;36239;48.132;-1.210;2023-09-30T07:11:38;42.64;38.05;49.03;;
50333;Laerm;36239;48.132;-1.210;2023-09-30T07:14:04;42.91;39.34;50.21;;
50333;Laerm;36239;48.132;-1.210;2023-09-30T07:16:30;43.07;37.88;54.01;;
50333;Laerm;36239;48.132;-1.210;2023-09-30T07:18:56;43.24;39.58;51.90;;
50333;Laerm;36239;48.132;-1.210;2023-09-30T07:21:22;48.26;38.52;66.47;;
50333;Laerm;36239;48.132;-1.210;2023-09-30T07:23:48;41.97;38.37;50.51;;
50333;Laerm;36239;48.132;-1.210;2023-09-30T07:26:15;42.36;38.21;50.14;;
50333;Laerm;36239;48.132;-1.210;2023-09-30T07:28:40;42.66;39.81;48.34;;
50333;Laerm;36239;48.132;-1.210;2023-09-30T07:31:06;41.99;37.52;50.73;;
50333;Laerm;36239;48.132;-1.210;2023-09-30T07:33:32;41.76;38.05;46.52;;
50333;Laerm;36239;48.132;-1.210;2023-09-30T07:35:58;42.12;38.67;56.62;;
50333;Laerm;36239;48.132;-1.210;2023-09-30T07:38:24;41.62;38.32;52.72;;
50333;Laerm;36239;48.132;-1.210;2023-09-30T07:40:50;43.52;38.52;64.38;;
50333;Laerm;36239;48.132;-1.210;2023-09-30T07:43:16;41.90;37.88;47.40;;
50333;Laerm;36239;48.132;-1.210;2023-09-30T07:45:43;42.04;38.21;53.40;;
50333;Laerm;36239;48.132;-1.210;2023-09-30T07:48:09;42.25;38.67;55.58;;
50333;Laerm;36239;48.132;-1.210;2023-09-30T07:50:36;40.96;38.21;49.25;;
50333;Laerm;36239;48.132;-1.210;2023-09-30T07:53:02;42.28;38.21;58.67;;
50333;Laerm;36239;48.132;-1.210;2023-09-30T07:55:28;41.93;37.12;55.61;;
50333;Laerm;36239;48.132;-1.210;2023-09-30T07:57:54;41.26;37.52;59.12;;
50333;Laerm;36239;48.132;-1.210;2023-09-30T08:00:23;45.65;37.70;64.91;;
50333;Laerm;36239;48.132;-1.210;2023-09-30T08:02:49;45.35;37.32;66.74;;
50333;Laerm;36239;48.132;-1.210;2023-09-30T08:05:15;41.65;37.32;60.08;;
50333;Laerm;36239;48.132;-1.210;2023-09-30T08:07:42;45.78;38.37;66.36;;
50333;Laerm;36239;48.132;-1.210;2023-09-30T08:10:09;44.77;38.05;66.03;;
50333;Laerm;36239;48.132;-1.210;2023-09-30T08:12:39;41.62;38.05;56.58;;
50333;Laerm;36239;48.132;-1.210;2023-09-30T08:15:06;41.10;37.12;55.41;;
50333;Laerm;36239;48.132;-1.210;2023-09-30T08:17:32;40.60;37.32;51.75;;
50333;Laerm;36239;48.132;-1.210;2023-09-30T08:19:59;43.01;37.12;59.90;;
50333;Laerm;36239;48.132;-1.210;2023-09-30T08:22:26;41.44;36.20;61.04;;
50333;Laerm;36239;48.132;-1.210;2023-09-30T08:24:54;41.62;36.45;58.94;;
50333;Laerm;36239;48.132;-1.210;2023-09-30T08:27:20;40.26;36.45;50.77;;
50333;Laerm;36239;48.132;-1.210;2023-09-30T08:29:46;41.26;35.94;54.78;;
50333;Laerm;36239;48.132;-1.210;2023-09-30T08:32:12;41.02;36.34;56.32;;
50333;Laerm;36239;48.132;-1.210;2023-09-30T08:34:38;47.63;36.45;66.37;;
50333;Laerm;36239;48.132;-1.210;2023-09-30T08:37:04;40.07;36.45;45.04;;
50333;Laerm;36239;48.132;-1.210;2023-09-30T08:39:30;45.75;36.20;64.90;;
50333;Laerm;36239;48.132;-1.210;2023-09-30T08:41:56;39.90;36.34;56.21;;
50333;Laerm;36239;48.132;-1.210;2023-09-30T08:44:23;39.46;35.36;44.65;;
50333;Laerm;36239;48.132;-1.210;2023-09-30T08:46:50;40.99;35.94;60.40;;
50333;Laerm;36239;48.132;-1.210;2023-09-30T08:49:17;42.83;36.45;63.95;;
50333;Laerm;36239;48.132;-1.210;2023-09-30T08:51:44;40.05;36.20;56.14;;
50333;Laerm;36239;48.132;-1.210;2023-09-30T08:54:10;41.14;35.04;62.25;;
50333;Laerm;36239;48.132;-1.210;2023-09-30T08:56:37;44.77;36.91;66.72;;
50333;Laerm;36239;48.132;-1.210;2023-09-30T08:59:06;42.95;36.20;67.55;;
50333;Laerm;36239;48.132;-1.210;2023-09-30T09:01:32;40.99;36.20;61.56;;
50333;Laerm;36239;48.132;-1.210;2023-09-30T09:03:59;42.62;35.66;62.58;;
50333;Laerm;36239;48.132;-1.210;2023-09-30T09:06:26;39.80;35.04;45.33;;
50333;Laerm;36239;48.132;-1.210;2023-09-30T09:08:53;40.54;35.04;54.85;;
50333;Laerm;36239;48.132;-1.210;2023-09-30T09:11:19;44.35;36.45;66.49;;
50333;Laerm;36239;48.132;-1.210;2023-09-30T09:13:50;41.27;35.36;54.36;;
50333;Laerm;36239;48.132;-1.210;2023-09-30T09:16:19;54.82;35.94;79.21;;
50333;Laerm;36239;48.132;-1.210;2023-09-30T09:18:45;41.35;35.66;58.69;;
50333;Laerm;36239;48.132;-1.210;2023-09-30T09:21:20;41.22;36.69;56.91;;
50333;Laerm;36239;48.132;-1.210;2023-09-30T09:23:49;40.66;36.69;57.19;;
50333;Laerm;36239;48.132;-1.210;2023-09-30T09:26:28;42.03;36.20;62.75;;
50333;Laerm;36239;48.132;-1.210;2023-09-30T09:28:59;42.84;35.94;62.83;;
50333;Laerm;36239;48.132;-1.210;2023-09-30T09:31:28;43.07;37.32;65.65;;
50333;Laerm;36239;48.132;-1.210;2023-09-30T09:33:55;41.47;36.91;53.17;;
50333;Laerm;36239;48.132;-1.210;2023-09-30T09:36:22;42.29;37.70;55.63;;
50333;Laerm;36239;48.132;-1.210;2023-09-30T09:39:03;41.80;37.88;47.34;;
50333;Laerm;36239;48.132;-1.210;2023-09-30T09:41:29;43.03;36.69;55.54;;
50333;Laerm;36239;48.132;-1.210;2023-09-30T09:43:55;45.63;37.70;54.29;;
50333;Laerm;36239;48.132;-1.210;2023-09-30T09:46:24;44.42;36.45;58.37;;
50333;Laerm;36239;48.132;-1.210;2023-09-30T09:48:51;44.53;37.52;61.90;;
50333;Laerm;36239;48.132;-1.210;2023-09-30T09:51:18;44.04;35.94;63.24;;
50333;Laerm;36239;48.132;-1.210;2023-09-30T09:53:44;44.37;36.69;61.48;;
50333;Laerm;36239;48.132;-1.210;2023-09-30T09:56:10;41.87;35.04;57.83;;
50333;Laerm;36239;48.132;-1.210;2023-09-30T09:58:39;43.16;37.52;64.58;;
50333;Laerm;36239;48.132;-1.210;2023-09-30T10:01:06;43.27;37.52;55.30;;
50333;Laerm;36239;48.132;-1.210;2023-09-30T10:03:32;43.02;36.20;53.76;;
50333;Laerm;36239;48.132;-1.210;2023-09-30T10:05:59;43.55;37.70;59.58;;
50333;Laerm;36239;48.132;-1.210;2023-09-30T10:08:31;43.57;36.69;58.17;;
50333;Laerm;36239;48.132;-1.210;2023-09-30T10:10:58;43.37;36.45;54.90;;
50333;Laerm;36239;48.132;-1.210;2023-09-30T10:16:38;46.95;37.52;64.80;;
50333;Laerm;36239;48.132;-1.210;2023-09-30T10:19:16;47.07;36.91;65.26;;
50333;Laerm;36239;48.132;-1.210;2023-09-30T10:24:28;41.80;36.34;56.57;;
50333;Laerm;36239;48.132;-1.210;2023-09-30T10:27:27;40.56;35.04;53.28;;
50333;Laerm;36239;48.132;-1.210;2023-09-30T10:30:13;38.79;33.44;49.33;;
50333;Laerm;36239;48.132;-1.210;2023-09-30T10:35:17;43.23;35.94;66.75;;
50333;Laerm;36239;48.132;-1.210;2023-09-30T10:37:44;41.22;35.66;62.71;;
50333;Laerm;36239;48.132;-1.210;2023-09-30T10:40:25;45.12;33.90;68.16;;
50333;Laerm;36239;48.132;-1.210;2023-09-30T10:42:51;38.50;32.93;50.43;;
50333;Laerm;36239;48.132;-1.210;2023-09-30T10:50:56;43.06;33.97;66.80;;
50333;Laerm;36239;48.132;-1.210;2023-09-30T10:53:22;38.97;34.69;55.35;;
50333;Laerm;36239;48.132;-1.210;2023-09-30T10:55:58;40.13;34.31;64.82;;
50333;Laerm;36239;48.132;-1.210;2023-09-30T10:58:43;40.46;35.04;58.89;;
50333;Laerm;36239;48.132;-1.210;2023-09-30T11:01:10;39.64;35.04;47.86;;
50333;Laerm;36239;48.132;-1.210;2023-09-30T11:03:36;41.39;36.20;45.17;;
50333;Laerm;36239;48.132;-1.210;2023-09-30T11:06:02;39.22;35.04;51.87;;
50333;Laerm;36239;48.132;-1.210;2023-09-30T11:08:29;40.83;34.31;60.93;;
50333;Laerm;36239;48.132;-1.210;2023-09-30T11:10:56;40.05;34.69;47.70;;
50333;Laerm;36239;48.132;-1.210;2023-09-30T11:13:22;41.02;34.69;54.42;;
50333;Laerm;36239;48.132;-1.210;2023-09-30T11:15:51;39.36;33.90;48.99;;
50333;Laerm;36239;48.132;-1.210;2023-09-30T11:18:25;40.22;34.31;60.10;;
50333;Laerm;36239;48.132;-1.210;2023-09-30T11:20:53;51.22;34.69;76.04;;
50333;Laerm;36239;48.132;-1.210;2023-09-30T11:23:28;38.74;34.31;55.55;;
50333;Laerm;36239;48.132;-1.210;2023-09-30T11:25:54;39.84;34.69;52.66;;
50333;Laerm;36239;48.132;-1.210;2023-09-30T11:28:20;40.78;35.66;54.23;;
50333;Laerm;36239;48.132;-1.210;2023-09-30T11:30:54;40.30;32.93;60.93;;
50333;Laerm;36239;48.132;-1.210;2023-09-30T11:33:20;39.22;34.69;55.58;;
50333;Laerm;36239;48.132;-1.210;2023-09-30T11:36:02;42.75;35.04;66.96;;
50333;Laerm;36239;48.132;-1.210;2023-09-30T11:38:28;44.68;34.69;65.55;;
50333;Laerm;36239;48.132;-1.210;2023-09-30T11:41:01;41.26;35.36;64.42;;
50333;Laerm;36239;48.132;-1.210;2023-09-30T11:43:31;49.17;35.36;74.01;;
50333;Laerm;36239;48.132;-1.210;2023-09-30T11:46:07;46.86;35.66;65.18;;
50333;Laerm;36239;48.132;-1.210;2023-09-30T11:49:23;46.96;36.20;73.23;;
50333;Laerm;36239;48.132;-1.210;2023-09-30T11:51:21;41.08;33.44;68.23;;
50333;Laerm;36239;48.132;-1.210;2023-09-30T11:53:50;42.56;35.36;59.75;;
50333;Laerm;36239;48.132;-1.210;2023-09-30T11:56:23;39.19;34.31;58.50;;
50333;Laerm;36239;48.132;-1.210;2023-09-30T11:58:53;45.59;34.31;71.13;;
50333;Laerm;36239;48.132;-1.210;2023-09-30T12:01:19;43.15;34.69;70.61;;
50333;Laerm;36239;48.132;-1.210;2023-09-30T12:03:48;39.86;35.36;61.40;;
50333;Laerm;36239;48.132;-1.210;2023-09-30T12:06:14;38.81;34.31;48.51;;
50333;Laerm;36239;48.132;-1.210;2023-09-30T12:08:42;38.53;34.31;47.20;;
50333;Laerm;36239;48.132;-1.210;2023-09-30T12:11:08;41.00;33.90;63.25;;
50333;Laerm;36239;48.132;-1.210;2023-09-30T12:13:34;40.29;33.44;61.09;;
50333;Laerm;36239;48.132;-1.210;2023-09-30T12:16:00;40.00;35.04;53.55;;
50333;Laerm;36239;48.132;-1.210;2023-09-30T12:18:26;42.29;34.31;62.81;;
50333;Laerm;36239;48.132;-1.210;2023-09-30T12:20:52;38.48;34.31;43.24;;
50333;Laerm;36239;48.132;-1.210;2023-09-30T12:23:19;40.01;32.93;53.06;;
50333;Laerm;36239;48.132;-1.210;2023-09-30T12:25:46;60.70;33.44;81.72;;
50333;Laerm;36239;48.132;-1.210;2023-09-30T12:28:13;43.32;33.44;66.41;;
50333;Laerm;36239;48.132;-1.210;2023-09-30T12:30:40;40.68;34.31;65.56;;
50333;Laerm;36239;48.132;-1.210;2023-09-30T12:33:07;40.78;35.04;52.21;;
50333;Laerm;36239;48.132;-1.210;2023-09-30T12:35:33;39.52;34.31;59.85;;
50333;Laerm;36239;48.132;-1.210;2023-09-30T12:37:59;38.33;34.31;46.48;;
50333;Laerm;36239;48.132;-1.210;2023-09-30T12:40:25;59.07;35.01;89.98;;
50333;Laerm;36239;48.132;-1.210;2023-09-30T12:42:51;41.17;36.20;59.43;;
50333;Laerm;36239;48.132;-1.210;2023-09-30T12:45:17;39.43;35.04;48.69;;
50333;Laerm;36239;48.132;-1.210;2023-09-30T12:47:44;46.32;35.36;70.09;;
50333;Laerm;36239;48.132;-1.210;2023-09-30T12:50:10;39.74;35.36;55.37;;
50333;Laerm;36239;48.132;-1.210;2023-09-30T12:52:36;39.28;35.04;51.80;;
50333;Laerm;36239;48.132;-1.210;2023-09-30T12:55:02;39.23;34.69;46.13;;
50333;Laerm;36239;48.132;-1.210;2023-09-30T12:57:28;40.87;35.36;53.01;;
50333;Laerm;36239;48.132;-1.210;2023-09-30T12:59:54;40.05;35.36;58.99;;
50333;Laerm;36239;48.132;-1.210;2023-09-30T13:02:20;39.39;34.31;58.27;;
50333;Laerm;36239;48.132;-1.210;2023-09-30T13:04:46;44.44;35.04;63.05;;
50333;Laerm;36239;48.132;-1.210;2023-09-30T13:07:13;50.42;33.90;71.97;;
50333;Laerm;36239;48.132;-1.210;2023-09-30T13:09:39;40.09;34.69;64.52;;
50333;Laerm;36239;48.132;-1.210;2023-09-30T13:12:05;38.51;34.31;49.52;;
50333;Laerm;36239;48.132;-1.210;2023-09-30T13:14:31;40.10;34.31;63.44;;
50333;Laerm;36239;48.132;-1.210;2023-09-30T13:16:58;41.61;35.66;66.54;;
50333;Laerm;36239;48.132;-1.210;2023-09-30T13:19:24;41.43;35.36;67.11;;
50333;Laerm;36239;48.132;-1.210;2023-09-30T13:21:50;39.96;35.66;48.54;;
50333;Laerm;36239;48.132;-1.210;2023-09-30T13:24:16;43.31;35.59;68.54;;
50333;Laerm;36239;48.132;-1.210;2023-09-30T13:26:42;39.90;35.94;49.90;;
50333;Laerm;36239;48.132;-1.210;2023-09-30T13:29:08;39.88;35.66;50.95;;
50333;Laerm;36239;48.132;-1.210;2023-09-30T13:31:39;43.65;38.05;64.80;;
50333;Laerm;36239;48.132;-1.210;2023-09-30T13:34:05;42.79;38.95;51.47;;
50333;Laerm;36239;48.132;-1.210;2023-09-30T13:36:32;42.77;38.05;49.25;;
50333;Laerm;36239;48.132;-1.210;2023-09-30T13:38:58;41.60;34.31;58.15;;
50333;Laerm;36239;48.132;-1.210;2023-09-30T13:41:24;42.15;38.21;54.67;;
50333;Laerm;36239;48.132;-1.210;2023-09-30T13:43:50;42.43;39.21;45.39;;
50333;Laerm;36239;48.132;-1.210;2023-09-30T13:46:16;44.74;38.05;67.38;;